createdAt,value
2018-10-02T00:00:54.213Z,63.51
2018-10-02T00:03:27.798Z,63.47
2018-10-02T00:06:01.480Z,63.38
2018-10-02T00:08:35.071Z,63.31
2018-10-02T00:11:14.069Z,63.34
2018-10-02T00:13:53.012Z,63.29
2018-10-02T00:16:26.641Z,63.41
2018-10-02T00:19:00.223Z,63.37
2018-10-02T00:21:33.847Z,63.02
2018-10-02T00:24:07.801Z,62.89
2018-10-02T00:26:41.441Z,63.06
2018-10-02T00:29:15.029Z,62.91
2018-10-02T00:31:48.668Z,62.86
2018-10-02T00:34:22.339Z,62.88
2018-10-02T00:36:55.939Z,62.83
2018-10-02T00:39:29.658Z,62.71
2018-10-02T00:42:03.305Z,62.63
2018-10-02T00:44:36.895Z,62.34
2018-10-02T00:47:10.666Z,62.55
2018-10-02T00:49:44.279Z,62.60
2018-10-02T00:52:18.004Z,62.58
2018-10-02T00:54:51.573Z,62.45
2018-10-02T00:57:25.194Z,62.46
2018-10-02T00:59:58.836Z,62.56
2018-10-02T01:02:32.449Z,62.85
2018-10-02T01:05:06.328Z,62.96
2018-10-02T01:07:40.006Z,62.97
2018-10-02T01:10:13.603Z,62.93
2018-10-02T01:12:47.254Z,63.21
2018-10-02T01:15:20.855Z,63.25
2018-10-02T01:17:54.481Z,62.92
2018-10-02T01:20:28.153Z,63.24
2018-10-02T01:23:01.760Z,63.23
2018-10-02T01:25:35.425Z,63.00
2018-10-02T01:28:09.234Z,63.08
2018-10-02T01:30:42.878Z,63.32
2018-10-02T01:33:16.515Z,63.20
2018-10-02T01:35:50.186Z,63.31
2018-10-02T01:38:23.819Z,62.87
2018-10-02T01:40:57.423Z,63.05
2018-10-02T01:43:32.109Z,63.41
2018-10-02T01:46:05.726Z,63.20
2018-10-02T01:48:39.340Z,63.27
2018-10-02T01:51:12.882Z,63.16
2018-10-02T01:53:46.615Z,63.08
2018-10-02T01:56:20.272Z,63.29
2018-10-02T01:58:53.891Z,63.31
2018-10-02T02:01:27.543Z,63.22
2018-10-02T02:04:01.137Z,63.28
2018-10-02T02:06:34.754Z,63.17
2018-10-02T02:09:08.639Z,63.32
2018-10-02T02:11:42.240Z,63.28
2018-10-02T02:14:15.950Z,63.18
2018-10-02T02:16:49.573Z,63.19
2018-10-02T02:19:23.166Z,63.22
2018-10-02T02:21:56.771Z,63.11
2018-10-02T02:24:30.359Z,63.28
2018-10-02T02:27:03.988Z,63.25
2018-10-02T02:29:37.604Z,63.06
2018-10-02T02:32:11.216Z,63.06
2018-10-02T02:34:44.836Z,63.28
2018-10-02T02:37:18.521Z,63.18
2018-10-02T02:39:52.095Z,63.50
2018-10-02T02:42:25.706Z,63.55
2018-10-02T02:44:59.418Z,63.54
2018-10-02T02:47:38.218Z,63.60
2018-10-02T02:50:17.064Z,63.56
2018-10-02T02:52:53.882Z,63.83
2018-10-02T02:55:27.435Z,63.60
2018-10-02T02:58:01.046Z,64.01
2018-10-02T03:00:34.669Z,64.07
2018-10-02T03:03:08.363Z,64.11
2018-10-02T03:05:42.050Z,63.88
2018-10-02T03:08:15.739Z,63.73
2018-10-02T03:10:49.322Z,63.54
2018-10-02T03:13:22.956Z,63.72
2018-10-02T03:15:56.558Z,63.88
2018-10-02T03:18:30.157Z,64.05
2018-10-02T03:21:03.756Z,64.00
2018-10-02T03:23:37.398Z,64.30
2018-10-02T03:26:11.081Z,64.34
2018-10-02T03:28:44.695Z,64.73
2018-10-02T03:31:18.293Z,64.71
2018-10-02T03:33:52.006Z,64.38
2018-10-02T03:36:25.606Z,64.50
2018-10-02T03:38:59.262Z,64.30
2018-10-02T03:41:32.902Z,64.60
2018-10-02T03:44:06.536Z,64.71
2018-10-02T03:46:40.138Z,64.67
2018-10-02T03:49:13.759Z,64.62
2018-10-02T03:51:47.395Z,64.40
2018-10-02T03:54:21.073Z,64.53
2018-10-02T03:56:54.763Z,64.59
2018-10-02T03:59:28.373Z,64.47
2018-10-02T04:02:01.961Z,64.60
2018-10-02T04:04:35.630Z,64.50
2018-10-02T04:07:09.299Z,64.97
2018-10-02T04:09:42.998Z,64.58
2018-10-02T04:12:16.589Z,64.54
2018-10-02T04:14:50.220Z,64.59
2018-10-02T04:17:23.842Z,64.68
2018-10-02T04:19:57.496Z,65.04
2018-10-02T04:22:31.162Z,64.92
2018-10-02T04:25:04.889Z,65.05
2018-10-02T04:27:46.778Z,64.72
2018-10-02T04:30:20.583Z,64.71
2018-10-02T04:32:54.217Z,64.65
2018-10-02T04:35:27.854Z,64.98
2018-10-02T04:38:01.524Z,65.16
2018-10-02T04:40:35.165Z,64.79
2018-10-02T04:43:08.759Z,64.67
2018-10-02T04:45:42.395Z,64.77
2018-10-02T04:48:16.005Z,64.82
2018-10-02T04:50:49.683Z,64.58
2018-10-02T04:53:23.305Z,64.82
2018-10-02T04:55:56.967Z,64.59
2018-10-02T04:58:30.531Z,64.83
2018-10-02T05:01:06.094Z,64.65
2018-10-02T05:03:41.245Z,64.46
2018-10-02T05:06:15.990Z,64.47
2018-10-02T05:08:49.766Z,64.36
2018-10-02T05:11:23.421Z,64.46
2018-10-02T05:13:57.089Z,64.54
2018-10-02T05:16:30.710Z,64.57
2018-10-02T05:19:04.374Z,64.74
2018-10-02T05:21:38.014Z,64.62
2018-10-02T05:24:11.648Z,64.77
2018-10-02T05:26:45.256Z,64.70
2018-10-02T05:29:18.870Z,64.57
2018-10-02T05:31:52.533Z,64.61
2018-10-02T05:34:26.129Z,64.62
2018-10-02T05:36:59.717Z,64.81
2018-10-02T05:39:33.395Z,64.90
2018-10-02T05:42:07.019Z,64.71
2018-10-02T05:44:40.721Z,64.82
2018-10-02T05:47:14.361Z,64.66
2018-10-02T05:49:47.969Z,64.91
2018-10-02T05:52:21.582Z,64.46
2018-10-02T05:54:55.143Z,64.63
2018-10-02T05:57:29.081Z,64.49
2018-10-02T06:00:02.757Z,64.89
2018-10-02T06:02:36.445Z,64.55
2018-10-02T06:05:10.068Z,64.61
2018-10-02T06:07:43.638Z,64.52
2018-10-02T06:10:17.299Z,64.74
2018-10-02T06:12:50.909Z,64.69
2018-10-02T06:15:24.561Z,64.80
2018-10-02T06:17:58.216Z,65.03
2018-10-02T06:20:31.844Z,64.92
2018-10-02T06:23:05.462Z,64.90
2018-10-02T06:25:39.099Z,64.54
2018-10-02T06:28:12.704Z,64.49
2018-10-02T06:30:46.335Z,64.71
2018-10-02T06:33:19.902Z,65.00
2018-10-02T06:35:53.532Z,64.94
2018-10-02T06:38:27.206Z,65.11
2018-10-02T06:41:00.821Z,65.25
2018-10-02T06:43:34.477Z,65.09
2018-10-02T06:46:08.161Z,65.04
2018-10-02T06:48:41.695Z,64.98
2018-10-02T06:51:15.447Z,65.50
2018-10-02T06:53:49.057Z,65.42
2018-10-02T06:56:22.670Z,65.62
2018-10-02T06:58:56.315Z,65.84
2018-10-02T07:01:29.917Z,65.70
2018-10-02T07:04:03.847Z,65.79
2018-10-02T07:06:37.474Z,65.93
2018-10-02T07:09:11.737Z,66.16
2018-10-02T07:11:45.389Z,66.80
2018-10-02T07:14:19.012Z,66.71
2018-10-02T07:16:52.674Z,66.54
2018-10-02T07:19:26.288Z,66.87
2018-10-02T07:22:00.030Z,66.85
2018-10-02T07:24:33.637Z,66.74
2018-10-02T07:27:07.498Z,66.60
2018-10-02T07:29:41.098Z,67.00
2018-10-02T07:32:14.741Z,66.92
2018-10-02T07:34:48.363Z,66.90
2018-10-02T07:37:21.994Z,66.89
2018-10-02T07:39:55.648Z,67.33
2018-10-02T07:42:30.462Z,67.26
2018-10-02T07:45:04.161Z,67.50
2018-10-02T07:47:37.837Z,67.15
2018-10-02T07:50:11.475Z,67.46
2018-10-02T07:52:45.107Z,68.29
2018-10-02T07:55:18.797Z,68.03
2018-10-02T07:57:52.486Z,68.15
2018-10-02T08:00:26.203Z,67.69
2018-10-02T08:02:59.986Z,67.60
2018-10-02T08:05:33.597Z,67.84
2018-10-02T08:08:07.980Z,67.86
2018-10-02T08:10:41.682Z,67.50
2018-10-02T08:13:15.282Z,67.56
2018-10-02T08:15:48.961Z,67.04
2018-10-02T08:18:22.602Z,67.34
2018-10-02T08:20:56.311Z,67.44
2018-10-02T08:23:30.000Z,67.07
2018-10-02T08:26:03.650Z,66.61
2018-10-02T08:28:37.356Z,67.06
2018-10-02T08:31:11.017Z,67.22
2018-10-02T08:33:44.637Z,67.45
2018-10-02T08:36:18.329Z,67.65
2018-10-02T08:39:55.269Z,67.92
2018-10-02T08:42:28.905Z,66.85
2018-10-02T08:45:02.522Z,67.37
2018-10-02T08:47:36.239Z,67.33
2018-10-02T08:50:09.948Z,67.90
2018-10-02T08:52:43.575Z,67.93
2018-10-02T08:55:17.196Z,68.07
2018-10-02T08:57:50.817Z,67.73
2018-10-02T09:00:24.515Z,67.33
2018-10-02T09:02:58.166Z,68.01
2018-10-02T09:05:31.785Z,67.70
2018-10-02T09:08:05.414Z,68.03
2018-10-02T09:10:39.047Z,67.74
2018-10-02T09:13:12.697Z,67.67
2018-10-02T09:15:46.443Z,67.81
2018-10-02T09:18:19.988Z,67.63
2018-10-02T09:20:54.137Z,67.83
2018-10-02T09:23:27.766Z,68.02
2018-10-02T09:26:01.414Z,67.80
2018-10-02T09:28:35.107Z,68.14
2018-10-02T09:31:13.785Z,67.89
2018-10-02T09:33:52.862Z,68.18
2018-10-02T09:36:31.809Z,68.62
2018-10-02T09:39:11.874Z,68.19
2018-10-02T09:41:50.888Z,69.14
2018-10-02T09:44:24.529Z,69.16
2018-10-02T09:46:58.157Z,69.16
2018-10-02T09:49:31.780Z,69.07
2018-10-02T09:52:05.566Z,69.17
2018-10-02T09:54:39.248Z,69.13
2018-10-02T09:57:12.876Z,69.06
2018-10-02T09:59:46.482Z,68.95
2018-10-02T10:02:25.485Z,69.26
2018-10-02T10:04:59.073Z,69.08
2018-10-02T10:07:32.707Z,69.22
2018-10-02T10:10:06.395Z,68.93
2018-10-02T10:12:40.008Z,69.12
2018-10-02T10:15:13.693Z,69.06
2018-10-02T10:17:47.323Z,69.08
2018-10-02T10:20:20.964Z,68.82
2018-10-02T10:22:54.674Z,69.57
2018-10-02T10:25:28.278Z,68.94
2018-10-02T10:28:01.909Z,69.02
2018-10-02T10:30:35.528Z,68.97
2018-10-02T10:33:09.143Z,69.26
2018-10-02T10:35:42.735Z,69.37
2018-10-02T10:38:16.348Z,69.69
2018-10-02T10:40:49.996Z,69.69
2018-10-02T10:43:23.730Z,69.57
2018-10-02T10:45:57.337Z,69.62
2018-10-02T10:48:30.962Z,69.81
2018-10-02T10:51:04.637Z,70.00
2018-10-02T10:53:38.272Z,69.74
2018-10-02T10:56:11.948Z,70.04
2018-10-02T10:58:45.608Z,69.84
2018-10-02T11:01:19.280Z,70.52
2018-10-02T11:03:52.911Z,70.29
2018-10-02T11:06:26.575Z,70.18
2018-10-02T11:09:00.203Z,70.60
2018-10-02T11:11:33.835Z,70.34
2018-10-02T11:14:07.599Z,70.44
2018-10-02T11:16:41.232Z,70.96
2018-10-02T11:19:14.855Z,70.70
2018-10-02T11:21:48.459Z,70.82
2018-10-02T11:24:22.082Z,70.58
2018-10-02T11:26:55.755Z,70.69
2018-10-02T11:29:30.260Z,70.72
2018-10-02T11:32:03.897Z,71.04
2018-10-02T11:34:37.561Z,71.34
2018-10-02T11:37:11.359Z,71.03
2018-10-02T11:39:45.209Z,70.76
2018-10-02T11:42:18.893Z,71.65
2018-10-02T11:44:52.674Z,71.53
2018-10-02T11:47:26.183Z,71.39
2018-10-02T11:49:59.861Z,71.42
2018-10-02T11:52:33.488Z,71.55
2018-10-02T11:55:07.213Z,71.44
2018-10-02T11:57:40.886Z,71.30
2018-10-02T12:00:14.568Z,71.62
2018-10-02T12:02:48.216Z,71.34
2018-10-02T12:05:22.860Z,71.40
2018-10-02T12:07:56.484Z,71.43
2018-10-02T12:10:30.136Z,71.70
2018-10-02T12:13:03.901Z,71.36
2018-10-02T12:15:37.460Z,71.80
2018-10-02T12:18:11.078Z,71.45
2018-10-02T12:20:44.752Z,71.50
2018-10-02T12:23:18.353Z,71.12
2018-10-02T12:25:51.962Z,71.48
2018-10-02T12:28:25.600Z,71.31
2018-10-02T12:30:59.248Z,71.41
2018-10-02T12:33:32.862Z,71.55
2018-10-02T12:36:06.486Z,71.76
2018-10-02T12:38:40.190Z,71.46
2018-10-02T12:41:13.789Z,71.30
2018-10-02T12:43:47.470Z,71.22
2018-10-02T12:46:21.251Z,71.67
2018-10-02T12:48:54.778Z,71.67
2018-10-02T12:51:28.476Z,71.55
2018-10-02T12:54:02.124Z,71.61
2018-10-02T12:56:35.768Z,71.43
2018-10-02T12:59:09.556Z,71.69
2018-10-02T13:01:43.260Z,71.49
2018-10-02T13:04:17.128Z,71.62
2018-10-02T13:06:50.794Z,71.42
2018-10-02T13:09:24.745Z,71.68
2018-10-02T13:11:58.481Z,71.37
2018-10-02T13:14:32.110Z,71.50
2018-10-02T13:17:05.795Z,71.78
2018-10-02T13:19:39.400Z,71.54
2018-10-02T13:22:13.038Z,71.89
2018-10-02T13:24:46.678Z,72.00
2018-10-02T13:27:20.329Z,71.62
2018-10-02T13:29:53.940Z,71.83
2018-10-02T13:32:27.602Z,71.67
2018-10-02T13:35:01.234Z,71.47
2018-10-02T13:37:34.966Z,72.05
2018-10-02T13:40:08.612Z,71.86
2018-10-02T13:42:42.240Z,71.62
2018-10-02T13:45:15.879Z,72.09
2018-10-02T13:47:49.516Z,71.78
2018-10-02T13:50:23.263Z,71.40
2018-10-02T13:52:56.858Z,71.35
2018-10-02T13:55:30.483Z,71.44
2018-10-02T13:58:04.120Z,71.59
2018-10-02T14:00:37.871Z,71.58
2018-10-02T14:03:11.547Z,71.97
2018-10-02T14:05:45.181Z,71.88
2018-10-02T14:08:18.834Z,71.62
2018-10-02T14:10:53.033Z,71.94
2018-10-02T14:13:26.694Z,71.83
2018-10-02T14:16:00.314Z,71.75
2018-10-02T14:18:34.107Z,72.09
2018-10-02T14:21:07.757Z,72.09
2018-10-02T14:23:41.361Z,71.87
2018-10-02T14:26:14.999Z,72.21
2018-10-02T14:28:48.595Z,72.11
2018-10-02T14:31:22.582Z,72.29
2018-10-02T14:33:56.206Z,72.43
2018-10-02T14:36:29.883Z,72.02
2018-10-02T14:39:04.639Z,72.17
2018-10-02T14:41:38.295Z,72.32
2018-10-02T14:44:11.900Z,72.43
2018-10-02T14:46:45.599Z,72.34
2018-10-02T14:49:19.266Z,72.49
2018-10-02T14:51:52.879Z,72.32
2018-10-02T14:54:26.574Z,72.11
2018-10-02T14:57:00.303Z,72.22
2018-10-02T14:59:33.975Z,72.27
2018-10-02T15:02:07.678Z,72.32
2018-10-02T15:04:41.332Z,71.99
2018-10-02T15:07:15.251Z,72.19
2018-10-02T15:09:48.931Z,72.28
2018-10-02T15:12:22.571Z,72.46
2018-10-02T15:14:57.387Z,72.35
2018-10-02T15:17:31.077Z,72.13
2018-10-02T15:20:04.891Z,72.50
2018-10-02T15:22:38.833Z,72.29
2018-10-02T15:25:15.254Z,71.88
2018-10-02T15:27:48.909Z,72.14
2018-10-02T15:30:22.534Z,72.10
2018-10-02T15:32:56.242Z,71.88
2018-10-02T15:35:30.192Z,72.19
2018-10-02T15:38:03.990Z,72.14
2018-10-02T15:40:37.601Z,72.12
2018-10-02T15:43:11.529Z,72.06
2018-10-02T15:45:46.291Z,71.94
2018-10-02T15:48:20.091Z,72.20
2018-10-02T15:50:54.576Z,72.31
2018-10-02T15:53:28.246Z,72.36
2018-10-02T15:56:01.866Z,72.04
2018-10-02T15:58:36.235Z,72.21
2018-10-02T16:01:09.896Z,72.62
2018-10-02T16:03:43.559Z,72.33
2018-10-02T16:06:22.564Z,72.22
2018-10-02T16:08:56.230Z,72.56
2018-10-02T16:11:29.957Z,72.46
2018-10-02T16:14:03.586Z,72.40
2018-10-02T16:16:37.274Z,72.05
2018-10-02T16:19:11.036Z,72.11
2018-10-02T16:21:44.698Z,72.22
2018-10-02T16:24:18.454Z,72.03
2018-10-02T16:26:52.107Z,71.98
2018-10-02T16:29:25.793Z,71.79
2018-10-02T16:31:59.414Z,71.95
2018-10-02T16:34:33.177Z,72.07
2018-10-02T16:37:06.800Z,72.08
2018-10-02T16:39:40.485Z,72.02
2018-10-02T16:42:14.972Z,72.03
2018-10-02T16:44:48.575Z,72.29
2018-10-02T16:47:22.325Z,72.08
2018-10-02T16:49:55.926Z,72.28
2018-10-02T16:52:29.628Z,72.05
2018-10-02T16:55:03.249Z,71.98
2018-10-02T16:57:36.913Z,72.14
2018-10-02T17:00:10.644Z,72.21
2018-10-02T17:02:44.478Z,72.24
2018-10-02T17:05:18.148Z,72.31
2018-10-02T17:07:51.918Z,72.31
2018-10-02T17:10:25.613Z,72.38
2018-10-02T17:12:59.390Z,72.44
2018-10-02T17:15:33.137Z,72.03
2018-10-02T17:18:06.882Z,72.68
2018-10-02T17:20:40.569Z,72.48
2018-10-02T17:23:14.262Z,72.47
2018-10-02T17:25:48.297Z,72.37
2018-10-02T17:28:22.065Z,72.19
2018-10-02T17:30:55.677Z,72.24
2018-10-02T17:33:29.348Z,72.47
2018-10-02T17:36:02.985Z,72.49
2018-10-02T17:38:36.615Z,72.28
2018-10-02T17:41:10.252Z,72.20
2018-10-02T17:43:43.940Z,71.78
2018-10-02T17:46:17.639Z,71.86
2018-10-02T17:48:51.566Z,72.04
2018-10-02T17:51:25.330Z,72.15
2018-10-02T17:54:00.091Z,72.06
2018-10-02T17:56:33.762Z,72.22
2018-10-02T17:59:07.433Z,72.06
2018-10-02T18:01:41.128Z,72.02
2018-10-02T18:04:14.769Z,71.91
2018-10-02T18:06:48.444Z,72.15
2018-10-02T18:09:22.251Z,72.21
2018-10-02T18:11:55.896Z,72.07
2018-10-02T18:14:29.653Z,72.12
2018-10-02T18:17:03.442Z,72.06
2018-10-02T18:19:37.164Z,71.96
2018-10-02T18:22:10.860Z,72.01
2018-10-02T18:24:44.666Z,71.99
2018-10-02T18:27:18.441Z,71.62
2018-10-02T18:29:52.129Z,71.82
2018-10-02T18:32:25.867Z,71.85
2018-10-02T18:34:59.515Z,72.23
2018-10-02T18:37:33.813Z,71.97
2018-10-02T18:40:07.607Z,71.80
2018-10-02T18:42:41.360Z,71.50
2018-10-02T18:45:15.215Z,71.79
2018-10-02T18:47:49.065Z,71.81
2018-10-02T18:50:22.857Z,71.71
2018-10-02T18:52:56.625Z,71.61
2018-10-02T18:55:30.433Z,71.19
2018-10-02T18:58:04.453Z,71.42
2018-10-02T19:00:39.333Z,71.52
2018-10-02T19:03:13.062Z,71.44
2018-10-02T19:05:48.893Z,71.02
2018-10-02T19:08:29.006Z,71.73
2018-10-02T19:11:06.847Z,71.24
2018-10-02T19:13:40.688Z,71.51
2018-10-02T19:16:19.470Z,71.27
2018-10-02T19:18:53.308Z,71.34
2018-10-02T19:21:27.516Z,71.55
2018-10-02T19:24:01.279Z,71.54
2018-10-02T19:26:34.903Z,71.49
2018-10-02T19:29:08.749Z,70.80
2018-10-02T19:31:47.742Z,71.18
2018-10-02T19:34:21.383Z,71.29
2018-10-02T19:36:55.074Z,70.97
2018-10-02T19:39:30.679Z,71.19
2018-10-02T19:42:04.419Z,71.37
2018-10-02T19:44:38.282Z,71.33
2018-10-02T19:47:12.000Z,71.33
2018-10-02T19:49:45.711Z,71.20
2018-10-02T19:52:19.403Z,71.13
2018-10-02T19:54:53.240Z,71.18
2018-10-02T19:57:26.884Z,70.79
2018-10-02T20:00:03.552Z,71.20
2018-10-02T20:02:37.327Z,70.89
2018-10-02T20:05:10.967Z,71.01
2018-10-02T20:07:44.827Z,71.04
2018-10-02T20:10:18.487Z,71.21
2018-10-02T20:12:52.287Z,71.33
2018-10-02T20:15:25.957Z,70.86
2018-10-02T20:17:59.686Z,71.35
2018-10-02T20:20:33.512Z,71.32
2018-10-02T20:23:07.313Z,71.38
2018-10-02T20:25:41.043Z,71.69
2018-10-02T20:28:14.787Z,71.72
2018-10-02T20:30:48.548Z,71.53
2018-10-02T20:33:22.174Z,71.51
2018-10-02T20:35:55.972Z,71.51
2018-10-02T20:38:35.057Z,71.51
2018-10-02T20:41:08.823Z,71.47
2018-10-02T20:43:42.440Z,71.72
2018-10-02T20:46:16.499Z,71.54
2018-10-02T20:48:50.173Z,71.75
2018-10-02T20:51:23.927Z,72.03
2018-10-02T20:53:57.597Z,71.91
2018-10-02T20:56:31.630Z,71.97
2018-10-02T20:59:05.418Z,71.96
2018-10-02T21:01:39.188Z,71.70
2018-10-02T21:04:12.890Z,71.87
2018-10-02T21:06:46.672Z,71.66
2018-10-02T21:09:20.461Z,71.97
2018-10-02T21:11:54.262Z,72.06
2018-10-02T21:14:28.211Z,71.61
2018-10-02T21:17:01.874Z,71.53
2018-10-02T21:19:35.611Z,71.82
2018-10-02T21:22:09.261Z,71.38
2018-10-02T21:24:42.865Z,71.30
2018-10-02T21:27:16.482Z,71.31
2018-10-02T21:29:50.116Z,71.42
2018-10-02T21:32:23.721Z,71.56
2018-10-02T21:34:57.343Z,71.32
2018-10-02T21:37:30.944Z,71.48
2018-10-02T21:40:04.667Z,71.72
2018-10-02T21:42:38.362Z,71.41
2018-10-02T21:45:12.194Z,71.27
2018-10-02T21:47:45.912Z,71.54
2018-10-02T21:50:19.550Z,71.56
2018-10-02T21:52:53.299Z,71.50
2018-10-02T21:55:26.875Z,71.39
2018-10-02T21:58:00.651Z,70.86
2018-10-02T22:00:34.830Z,71.48
2018-10-02T22:03:08.494Z,71.03
2018-10-02T22:05:42.737Z,71.42
2018-10-02T22:08:16.440Z,71.20
2018-10-02T22:10:50.162Z,71.28
2018-10-02T22:16:21.094Z,71.47
2018-10-02T22:18:55.223Z,71.30
2018-10-02T22:21:28.838Z,71.22
2018-10-02T22:24:02.448Z,71.27
2018-10-02T22:26:36.731Z,71.11
2018-10-02T22:29:10.431Z,71.02
2018-10-02T22:31:44.932Z,71.02
2018-10-02T22:34:18.554Z,71.27
2018-10-02T22:36:52.251Z,71.35
2018-10-02T22:39:27.252Z,71.23
2018-10-02T22:42:00.949Z,71.09
2018-10-02T22:44:34.724Z,71.51
2018-10-02T22:47:08.372Z,70.91
2018-10-02T22:49:42.096Z,71.03
2018-10-02T22:52:15.766Z,71.42
2018-10-02T22:54:49.407Z,71.43
2018-10-02T22:57:23.005Z,71.38
2018-10-02T22:59:56.674Z,71.42
2018-10-02T23:02:30.263Z,71.25
2018-10-02T23:05:03.977Z,71.10
2018-10-02T23:07:37.565Z,71.53
2018-10-02T23:10:11.278Z,71.54
2018-10-02T23:12:44.884Z,71.46
2018-10-02T23:15:19.021Z,71.31
2018-10-02T23:17:52.632Z,71.44
2018-10-02T23:20:27.024Z,71.24
2018-10-02T23:23:00.654Z,71.66
2018-10-02T23:25:34.646Z,71.39
2018-10-02T23:28:08.244Z,71.65
2018-10-02T23:30:42.909Z,70.75
2018-10-02T23:33:16.581Z,70.87
2018-10-02T23:35:50.656Z,70.75
2018-10-02T23:38:24.417Z,71.40
2018-10-02T23:40:58.916Z,70.48
2018-10-02T23:43:32.599Z,70.72
2018-10-02T23:46:06.433Z,70.69
2018-10-02T23:48:40.655Z,70.65
2018-10-02T23:51:14.468Z,70.57
2018-10-02T23:53:48.273Z,70.32
2018-10-02T23:56:22.031Z,69.58
2018-10-02T23:58:55.640Z,69.54
